Waterloo Regional Airport
KALO : rendu visible

Aérodrome :











RETROUVEZ-NOUS SUR...

 
LOGIN :

S'inscrire | Disclaimer

   EN    FR    IT 

 









Légende :    VFR   VFR Marginal   IFR   IFR Intensif   IFR Très Intensif
Visi : 
Plafond : 
>= 8 km
>= 3000ft
5 à 8 km
1000 à 3000 ft
1500m à 5 km
500 à 1000 ft
800 à 1500m
200 à 500 ft
< 800m
< 200 ft
Symboles :   Orages  Brouillard  Fortes neiges  Fortes précipitations  Vent > 20 kt






- Altitude de l'aérodrome : 873 ft
- Code IATA : ALO


KALO - Waterloo Regional

DERNIER METAR :
  • 200954Z AUTO 31006KT 10SM CLR M18/M22 A3072 RMK AO2 SLP425 T11831222 $

METARs EXPIRÉS :
  • 200854Z AUTO 32007KT 10SM CLR M18/M22 A3072 RMK AO2 SLP426 T11781217 50002 $
  • 200754Z AUTO 32006KT 10SM CLR M17/M21 A3073 RMK AO2 SLP427 T11721211 $

TAF KALO
Valide du 20 à 06h jusqu'au 21 à 06h UTC


200530Z 2006/2106 33005KT P6SM SKC
FM202000 28006KT P6SM SKC
FM210000 19004KT P6SM SKC



MET'MAP, la Météo Aéronautique d'un coup d'oeil ! - Copyright ORBIFLY Décembre 2007 - Disclaimer

ORBIFLY MET'MAP TEAM :

Programmation & Développement : Alexandra Zaïnal
Sur une idée originale de : Baudouin d'Aumeries
Assistance à la programmation : Marc-Olivier Méhu
Soutien technique & logistique : Manuel Goepfert

Contact : metmap@orbifly.com




SOURCES & CREDITS :

   NOAA       Earth
Advisory